sensor_id;sensor_type;location;lat;lon;timestamp;pressure;altitude;pressure_sealevel;temperature;humidity
62697;BME280;48761;42.680;23.312;2022-11-14T00:00:48;95899.34;;;5.87;75.79
62697;BME280;48761;42.680;23.312;2022-11-14T00:03:17;95883.19;;;5.97;74.94
62697;BME280;48761;42.680;23.312;2022-11-14T00:05:45;95909.84;;;6.16;74.44
62697;BME280;48761;42.680;23.312;2022-11-14T00:08:17;95903.00;;;6.10;74.21
62697;BME280;48761;42.680;23.312;2022-11-14T00:10:45;95967.16;;;6.12;75.83
62697;BME280;48761;42.680;23.312;2022-11-14T00:13:12;95928.63;;;5.79;77.09
62697;BME280;48761;42.680;23.312;2022-11-14T00:15:38;95938.88;;;5.34;77.94
62697;BME280;48761;42.680;23.312;2022-11-14T00:18:04;95953.50;;;5.45;79.07
62697;BME280;48761;42.680;23.312;2022-11-14T00:20:30;95958.94;;;5.40;79.76
62697;BME280;48761;42.680;23.312;2022-11-14T00:22:56;95961.72;;;5.35;80.03
62697;BME280;48761;42.680;23.312;2022-11-14T00:25:23;95958.97;;;5.38;80.19
62697;BME280;48761;42.680;23.312;2022-11-14T00:27:49;95956.06;;;5.48;81.20
62697;BME280;48761;42.680;23.312;2022-11-14T00:30:18;95926.41;;;5.11;80.38
62697;BME280;48761;42.680;23.312;2022-11-14T00:32:59;95902.06;;;4.74;80.86
62697;BME280;48761;42.680;23.312;2022-11-14T00:35:42;95963.53;;;5.04;81.48
62697;BME280;48761;42.680;23.312;2022-11-14T00:38:20;95903.28;;;4.62;81.64
62697;BME280;48761;42.680;23.312;2022-11-14T00:40:46;95890.97;;;4.92;80.31
62697;BME280;48761;42.680;23.312;2022-11-14T00:43:12;95961.78;;;5.61;78.55
62697;BME280;48761;42.680;23.312;2022-11-14T00:45:38;95963.09;;;5.75;77.96
62697;BME280;48761;42.680;23.312;2022-11-14T00:48:04;95962.69;;;5.87;77.09
62697;BME280;48761;42.680;23.312;2022-11-14T00:50:30;95963.06;;;6.02;76.47
62697;BME280;48761;42.680;23.312;2022-11-14T00:52:59;95958.50;;;6.09;75.78
62697;BME280;48761;42.680;23.312;2022-11-14T00:55:25;95958.44;;;6.10;75.73
62697;BME280;48761;42.680;23.312;2022-11-14T00:57:51;95924.59;;;5.94;75.05
62697;BME280;48761;42.680;23.312;2022-11-14T01:00:17;95949.44;;;6.16;74.49
62697;BME280;48761;42.680;23.312;2022-11-14T01:02:43;95946.97;;;6.11;74.90
62697;BME280;48761;42.680;23.312;2022-11-14T01:05:12;95957.38;;;6.16;74.90
62697;BME280;48761;42.680;23.312;2022-11-14T01:07:38;95959.34;;;5.82;75.46
62697;BME280;48761;42.680;23.312;2022-11-14T01:10:04;95946.63;;;5.39;77.89
62697;BME280;48761;42.680;23.312;2022-11-14T01:12:30;95939.75;;;5.06;79.03
62697;BME280;48761;42.680;23.312;2022-11-14T01:14:56;95935.13;;;4.84;80.09
62697;BME280;48761;42.680;23.312;2022-11-14T01:17:22;95941.28;;;4.85;80.08
62697;BME280;48761;42.680;23.312;2022-11-14T01:19:48;95943.56;;;4.96;79.95
62697;BME280;48761;42.680;23.312;2022-11-14T01:22:14;95953.94;;;5.02;79.56
62697;BME280;48761;42.680;23.312;2022-11-14T01:24:40;95945.72;;;5.13;79.45
62697;BME280;48761;42.680;23.312;2022-11-14T01:27:09;95921.44;;;5.01;79.03
62697;BME280;48761;42.680;23.312;2022-11-14T01:29:35;95933.75;;;5.30;78.32
62697;BME280;48761;42.680;23.312;2022-11-14T01:32:01;95941.03;;;5.50;77.82
62697;BME280;48761;42.680;23.312;2022-11-14T01:34:27;95904.44;;;5.39;77.01
62697;BME280;48761;42.680;23.312;2022-11-14T01:36:53;95938.84;;;5.63;76.94
62697;BME280;48761;42.680;23.312;2022-11-14T01:39:19;95936.72;;;5.75;76.16
62697;BME280;48761;42.680;23.312;2022-11-14T01:41:45;95933.97;;;5.78;75.28
62697;BME280;48761;42.680;23.312;2022-11-14T01:44:14;95897.28;;;5.70;75.06
62697;BME280;48761;42.680;23.312;2022-11-14T01:46:44;95872.38;;;5.52;74.63
62697;BME280;48761;42.680;23.312;2022-11-14T01:51:42;95879.25;;;5.57;73.50
62697;BME280;48761;42.680;23.312;2022-11-14T01:54:23;95915.94;;;5.91;73.29
62697;BME280;48761;42.680;23.312;2022-11-14T01:56:58;95904.06;;;5.79;73.37
62697;BME280;48761;42.680;23.312;2022-11-14T01:59:31;95908.28;;;5.83;73.46
62697;BME280;48761;42.680;23.312;2022-11-14T02:02:01;95902.09;;;5.84;73.42
62697;BME280;48761;42.680;23.312;2022-11-14T02:04:44;95901.28;;;5.82;73.41
62697;BME280;48761;42.680;23.312;2022-11-14T02:07:12;95906.41;;;5.87;73.83
62697;BME280;48761;42.680;23.312;2022-11-14T02:09:42;95884.63;;;5.80;73.78
62697;BME280;48761;42.680;23.312;2022-11-14T02:12:12;95901.03;;;5.90;73.57
62697;BME280;48761;42.680;23.312;2022-11-14T02:14:40;95903.63;;;5.91;73.41
62697;BME280;48761;42.680;23.312;2022-11-14T02:17:07;95893.97;;;5.90;73.73
62697;BME280;48761;42.680;23.312;2022-11-14T02:22:35;95860.31;;;5.44;74.19
62697;BME280;48761;42.680;23.312;2022-11-14T02:25:02;95889.63;;;5.62;74.32
62697;BME280;48761;42.680;23.312;2022-11-14T02:27:29;95860.22;;;5.47;74.34
62697;BME280;48761;42.680;23.312;2022-11-14T02:30:08;95857.91;;;5.38;74.48
62697;BME280;48761;42.680;23.312;2022-11-14T02:32:35;95860.94;;;5.25;75.04
62697;BME280;48761;42.680;23.312;2022-11-14T02:35:01;95862.22;;;4.85;76.15
62697;BME280;48761;42.680;23.312;2022-11-14T02:37:27;95898.16;;;4.87;77.33
62697;BME280;48761;42.680;23.312;2022-11-14T02:39:52;95894.28;;;4.99;77.06
62697;BME280;48761;42.680;23.312;2022-11-14T02:42:18;95899.25;;;5.09;76.42
62697;BME280;48761;42.680;23.312;2022-11-14T02:44:44;95892.16;;;5.11;76.61
62697;BME280;48761;42.680;23.312;2022-11-14T02:47:10;95892.47;;;5.29;75.82
62697;BME280;48761;42.680;23.312;2022-11-14T02:49:36;95895.72;;;5.08;76.11
62697;BME280;48761;42.680;23.312;2022-11-14T02:52:02;95895.75;;;4.79;77.57
62697;BME280;48761;42.680;23.312;2022-11-14T02:54:28;95892.56;;;4.68;78.34
62697;BME280;48761;42.680;23.312;2022-11-14T02:56:54;95896.84;;;4.72;78.14
62697;BME280;48761;42.680;23.312;2022-11-14T02:59:20;95869.66;;;4.41;78.72
62697;BME280;48761;42.680;23.312;2022-11-14T03:01:45;95898.81;;;4.33;79.66
62697;BME280;48761;42.680;23.312;2022-11-14T03:04:11;95877.84;;;4.30;79.82
62697;BME280;48761;42.680;23.312;2022-11-14T03:06:37;95883.47;;;4.18;80.54
62697;BME280;48761;42.680;23.312;2022-11-14T03:09:03;95878.03;;;4.24;80.78
62697;BME280;48761;42.680;23.312;2022-11-14T03:11:29;95881.44;;;4.28;80.79
62697;BME280;48761;42.680;23.312;2022-11-14T03:13:55;95889.66;;;4.17;80.61
62697;BME280;48761;42.680;23.312;2022-11-14T03:16:21;95894.31;;;4.07;81.38
62697;BME280;48761;42.680;23.312;2022-11-14T03:18:47;95892.03;;;3.92;82.01
62697;BME280;48761;42.680;23.312;2022-11-14T03:21:16;95874.75;;;3.84;81.97
62697;BME280;48761;42.680;23.312;2022-11-14T03:23:42;95878.84;;;3.94;81.80
62697;BME280;48761;42.680;23.312;2022-11-14T03:26:10;95862.75;;;4.05;81.43
62697;BME280;48761;42.680;23.312;2022-11-14T03:28:36;95877.47;;;4.12;80.74
62697;BME280;48761;42.680;23.312;2022-11-14T03:31:03;95881.81;;;4.13;81.41
62697;BME280;48761;42.680;23.312;2022-11-14T03:33:29;95880.41;;;4.01;81.32
62697;BME280;48761;42.680;23.312;2022-11-14T03:35:55;95873.94;;;4.13;80.31
62697;BME280;48761;42.680;23.312;2022-11-14T03:38:21;95878.72;;;3.99;81.02
62697;BME280;48761;42.680;23.312;2022-11-14T03:40:48;95878.00;;;3.92;82.10
62697;BME280;48761;42.680;23.312;2022-11-14T03:43:16;95877.16;;;3.91;81.63
62697;BME280;48761;42.680;23.312;2022-11-14T03:45:42;95881.03;;;3.78;82.46
62697;BME280;48761;42.680;23.312;2022-11-14T03:48:08;95881.09;;;3.75;82.45
62697;BME280;48761;42.680;23.312;2022-11-14T03:50:34;95881.34;;;3.65;83.17
62697;BME280;48761;42.680;23.312;2022-11-14T03:53:00;95883.28;;;3.57;83.08
62697;BME280;48761;42.680;23.312;2022-11-14T03:55:26;95887.53;;;3.63;83.38
62697;BME280;48761;42.680;23.312;2022-11-14T03:57:52;95879.22;;;3.80;82.61
62697;BME280;48761;42.680;23.312;2022-11-14T04:00:18;95867.78;;;3.81;82.19
62697;BME280;48761;42.680;23.312;2022-11-14T04:02:44;95840.00;;;3.70;82.33
62697;BME280;48761;42.680;23.312;2022-11-14T04:05:10;95849.19;;;3.87;81.85
62697;BME280;48761;42.680;23.312;2022-11-14T04:07:39;95876.97;;;3.98;81.61
62697;BME280;48761;42.680;23.312;2022-11-14T04:10:06;95807.03;;;3.57;81.92
62697;BME280;48761;42.680;23.312;2022-11-14T04:12:32;95846.59;;;3.54;82.94
62697;BME280;48761;42.680;23.312;2022-11-14T04:14:58;95865.56;;;3.99;82.19
62697;BME280;48761;42.680;23.312;2022-11-14T04:17:24;95840.22;;;3.95;81.68
62697;BME280;48761;42.680;23.312;2022-11-14T04:19:50;95839.88;;;4.07;81.19
62697;BME280;48761;42.680;23.312;2022-11-14T04:22:16;95863.09;;;4.24;80.76
62697;BME280;48761;42.680;23.312;2022-11-14T04:24:42;95824.22;;;3.70;81.38
62697;BME280;48761;42.680;23.312;2022-11-14T04:27:07;95866.88;;;3.82;82.65
62697;BME280;48761;42.680;23.312;2022-11-14T04:29:33;95867.13;;;4.04;82.47
62697;BME280;48761;42.680;23.312;2022-11-14T04:31:59;95862.97;;;3.97;82.64
62697;BME280;48761;42.680;23.312;2022-11-14T04:34:25;95864.91;;;4.22;81.71
62697;BME280;48761;42.680;23.312;2022-11-14T04:36:51;95865.75;;;4.24;81.66
62697;BME280;48761;42.680;23.312;2022-11-14T04:39:17;95829.88;;;4.20;80.97
62697;BME280;48761;42.680;23.312;2022-11-14T04:41:43;95867.81;;;4.43;81.21
62697;BME280;48761;42.680;23.312;2022-11-14T04:44:09;95863.00;;;4.28;81.13
62697;BME280;48761;42.680;23.312;2022-11-14T04:46:35;95865.00;;;4.19;81.61
62697;BME280;48761;42.680;23.312;2022-11-14T04:49:01;95860.34;;;4.29;81.26
62697;BME280;48761;42.680;23.312;2022-11-14T04:51:27;95870.97;;;3.92;82.18
62697;BME280;48761;42.680;23.312;2022-11-14T04:53:53;95860.38;;;3.96;83.02
62697;BME280;48761;42.680;23.312;2022-11-14T04:56:19;95808.56;;;3.32;84.09
62697;BME280;48761;42.680;23.312;2022-11-14T04:58:45;95850.78;;;3.61;84.70
62697;BME280;48761;42.680;23.312;2022-11-14T05:01:12;95861.72;;;3.79;84.70
62697;BME280;48761;42.680;23.312;2022-11-14T05:03:38;95854.63;;;3.81;83.86
62697;BME280;48761;42.680;23.312;2022-11-14T05:06:04;95848.78;;;4.03;83.10
62697;BME280;48761;42.680;23.312;2022-11-14T05:08:30;95833.34;;;3.90;83.27
62697;BME280;48761;42.680;23.312;2022-11-14T05:10:56;95859.22;;;4.06;83.35
62697;BME280;48761;42.680;23.312;2022-11-14T05:13:22;95866.88;;;3.82;84.03
62697;BME280;48761;42.680;23.312;2022-11-14T05:15:47;95863.94;;;3.61;84.93
62697;BME280;48761;42.680;23.312;2022-11-14T05:18:13;95864.16;;;3.52;85.83
62697;BME280;48761;42.680;23.312;2022-11-14T05:20:39;95864.31;;;3.45;86.21
62697;BME280;48761;42.680;23.312;2022-11-14T05:23:05;95876.09;;;3.65;86.01
62697;BME280;48761;42.680;23.312;2022-11-14T05:25:31;95869.31;;;3.56;85.78
62697;BME280;48761;42.680;23.312;2022-11-14T05:27:57;95880.00;;;3.84;85.66
62697;BME280;48761;42.680;23.312;2022-11-14T05:30:23;95876.75;;;3.74;85.39
62697;BME280;48761;42.680;23.312;2022-11-14T05:32:50;95880.66;;;3.58;86.91
62697;BME280;48761;42.680;23.312;2022-11-14T05:35:16;95874.94;;;3.76;86.32
62697;BME280;48761;42.680;23.312;2022-11-14T05:37:42;95881.16;;;4.05;85.57
62697;BME280;48761;42.680;23.312;2022-11-14T05:40:08;95867.59;;;4.21;84.69
62697;BME280;48761;42.680;23.312;2022-11-14T05:42:34;95846.09;;;4.04;84.29
62697;BME280;48761;42.680;23.312;2022-11-14T05:45:00;95873.66;;;3.91;85.31
62697;BME280;48761;42.680;23.312;2022-11-14T05:47:26;95877.91;;;3.97;85.23
62697;BME280;48761;42.680;23.312;2022-11-14T05:49:52;95842.16;;;3.56;85.92
62697;BME280;48761;42.680;23.312;2022-11-14T05:52:18;95885.94;;;3.90;85.59
62697;BME280;48761;42.680;23.312;2022-11-14T05:54:44;95873.66;;;3.57;85.21
62697;BME280;48761;42.680;23.312;2022-11-14T05:57:10;95877.03;;;3.63;86.82
62697;BME280;48761;42.680;23.312;2022-11-14T05:59:36;95881.41;;;3.64;86.44
62697;BME280;48761;42.680;23.312;2022-11-14T06:02:02;95884.53;;;3.43;86.91
62697;BME280;48761;42.680;23.312;2022-11-14T06:04:28;95895.81;;;3.49;87.28
62697;BME280;48761;42.680;23.312;2022-11-14T06:06:54;95901.06;;;3.49;87.46
62697;BME280;48761;42.680;23.312;2022-11-14T06:09:20;95895.47;;;3.61;86.97
62697;BME280;48761;42.680;23.312;2022-11-14T06:11:45;95891.31;;;3.52;86.90
62697;BME280;48761;42.680;23.312;2022-11-14T06:14:11;95902.66;;;3.54;86.66
62697;BME280;48761;42.680;23.312;2022-11-14T06:16:37;95892.41;;;3.43;87.32
62697;BME280;48761;42.680;23.312;2022-11-14T06:19:03;95904.50;;;3.86;86.11
62697;BME280;48761;42.680;23.312;2022-11-14T06:21:29;95909.50;;;3.95;85.40
62697;BME280;48761;42.680;23.312;2022-11-14T06:23:55;95840.16;;;3.31;85.50
62697;BME280;48761;42.680;23.312;2022-11-14T06:26:22;95912.09;;;3.63;86.21
62697;BME280;48761;42.680;23.312;2022-11-14T06:28:49;95904.56;;;3.83;86.01
62697;BME280;48761;42.680;23.312;2022-11-14T06:31:17;95904.63;;;4.14;85.36
62697;BME280;48761;42.680;23.312;2022-11-14T06:33:43;95905.31;;;4.21;84.17
62697;BME280;48761;42.680;23.312;2022-11-14T06:36:09;95905.81;;;4.34;83.64
62697;BME280;48761;42.680;23.312;2022-11-14T06:38:37;95912.34;;;4.21;83.71
62697;BME280;48761;42.680;23.312;2022-11-14T06:41:08;95902.69;;;4.20;83.99
62697;BME280;48761;42.680;23.312;2022-11-14T06:43:39;95904.09;;;4.33;83.76
62697;BME280;48761;42.680;23.312;2022-11-14T06:46:09;95902.13;;;3.75;84.97
62697;BME280;48761;42.680;23.312;2022-11-14T06:48:36;95893.44;;;4.06;84.12
62697;BME280;48761;42.680;23.312;2022-11-14T06:51:04;95888.38;;;4.30;83.35
62697;BME280;48761;42.680;23.312;2022-11-14T06:53:31;95832.59;;;3.52;83.99
62697;BME280;48761;42.680;23.312;2022-11-14T06:56:04;95898.44;;;3.82;85.41
62697;BME280;48761;42.680;23.312;2022-11-14T06:58:32;95863.41;;;3.80;85.10
62697;BME280;48761;42.680;23.312;2022-11-14T07:01:07;95876.31;;;3.89;84.70
62697;BME280;48761;42.680;23.312;2022-11-14T07:03:35;95870.75;;;4.02;84.12
62697;BME280;48761;42.680;23.312;2022-11-14T07:06:02;95871.03;;;3.91;84.13
62697;BME280;48761;42.680;23.312;2022-11-14T07:08:29;95871.19;;;3.85;84.57
62697;BME280;48761;42.680;23.312;2022-11-14T07:11:07;95890.72;;;4.09;84.19
62697;BME280;48761;42.680;23.312;2022-11-14T07:13:34;95884.84;;;4.31;83.30
62697;BME280;48761;42.680;23.312;2022-11-14T07:16:00;95890.88;;;4.03;84.07
62697;BME280;48761;42.680;23.312;2022-11-14T07:18:33;95817.34;;;3.66;83.63
62697;BME280;48761;42.680;23.312;2022-11-14T07:21:01;95884.75;;;4.34;82.94
62697;BME280;48761;42.680;23.312;2022-11-14T07:23:51;95860.16;;;4.35;82.58
62697;BME280;48761;42.680;23.312;2022-11-14T07:26:17;95889.91;;;4.69;81.58
62697;BME280;48761;42.680;23.312;2022-11-14T07:28:44;95832.56;;;4.19;81.98
62697;BME280;48761;42.680;23.312;2022-11-14T07:31:12;95837.38;;;4.34;82.19
62697;BME280;48761;42.680;23.312;2022-11-14T07:33:42;95889.63;;;4.79;81.74
62697;BME280;48761;42.680;23.312;2022-11-14T07:36:09;95894.66;;;4.87;81.05
62697;BME280;48761;42.680;23.312;2022-11-14T07:38:36;95877.94;;;4.88;81.50
62697;BME280;48761;42.680;23.312;2022-11-14T07:41:05;95867.56;;;4.81;81.40
62697;BME280;48761;42.680;23.312;2022-11-14T07:43:32;95850.56;;;4.92;80.84
62697;BME280;48761;42.680;23.312;2022-11-14T07:46:03;95872.50;;;4.64;81.66
62697;BME280;48761;42.680;23.312;2022-11-14T07:48:31;95834.19;;;4.23;83.06
62697;BME280;48761;42.680;23.312;2022-11-14T07:51:16;95833.66;;;4.10;83.55
62697;BME280;48761;42.680;23.312;2022-11-14T07:53:44;95845.94;;;4.11;84.28
62697;BME280;48761;42.680;23.312;2022-11-14T07:56:12;95802.75;;;3.86;84.19
62697;BME280;48761;42.680;23.312;2022-11-14T07:58:41;95876.81;;;4.36;83.99
62697;BME280;48761;42.680;23.312;2022-11-14T08:01:12;95827.91;;;3.97;84.74
62697;BME280;48761;42.680;23.312;2022-11-14T08:03:40;95819.09;;;3.98;84.17
62697;BME280;48761;42.680;23.312;2022-11-14T08:06:10;95808.50;;;4.01;84.29
62697;BME280;48761;42.680;23.312;2022-11-14T08:08:41;95847.41;;;4.21;85.01
62697;BME280;48761;42.680;23.312;2022-11-14T08:12:20;95823.00;;;3.84;84.84
62697;BME280;48761;42.680;23.312;2022-11-14T08:14:43;95854.84;;;4.05;85.20
62697;BME280;48761;42.680;23.312;2022-11-14T08:17:09;95870.84;;;3.97;85.33
62697;BME280;48761;42.680;23.312;2022-11-14T08:19:35;95823.56;;;3.62;85.61
62697;BME280;48761;42.680;23.312;2022-11-14T08:22:10;95801.84;;;3.87;85.32
62697;BME280;48761;42.680;23.312;2022-11-14T08:24:46;95800.97;;;4.19;83.62
62697;BME280;48761;42.680;23.312;2022-11-14T08:27:17;95830.56;;;4.27;83.74
62697;BME280;48761;42.680;23.312;2022-11-14T08:29:49;95797.69;;;4.10;84.03
62697;BME280;48761;42.680;23.312;2022-11-14T08:32:21;95840.59;;;4.44;83.45
62697;BME280;48761;42.680;23.312;2022-11-14T08:34:47;95791.25;;;4.21;83.24
62697;BME280;48761;42.680;23.312;2022-11-14T08:37:18;95798.50;;;4.43;82.59
62697;BME280;48761;42.680;23.312;2022-11-14T08:39:47;95833.00;;;4.92;82.45
62697;BME280;48761;42.680;23.312;2022-11-14T08:42:37;95859.91;;;5.02;81.87
62697;BME280;48761;42.680;23.312;2022-11-14T08:45:03;95865.28;;;4.99;82.17
62697;BME280;48761;42.680;23.312;2022-11-14T08:47:30;95850.13;;;5.06;81.70
62697;BME280;48761;42.680;23.312;2022-11-14T08:49:59;95796.97;;;5.20;80.57
62697;BME280;48761;42.680;23.312;2022-11-14T08:52:25;95829.59;;;5.16;80.23
62697;BME280;48761;42.680;23.312;2022-11-14T08:54:59;95794.28;;;4.66;81.06
62697;BME280;48761;42.680;23.312;2022-11-14T08:58:01;95777.91;;;4.85;81.02
62697;BME280;48761;42.680;23.312;2022-11-14T09:00:28;95805.84;;;5.18;80.33
62697;BME280;48761;42.680;23.312;2022-11-14T09:02:54;95845.22;;;5.22;81.43
62697;BME280;48761;42.680;23.312;2022-11-14T09:05:20;95837.81;;;5.34;80.58
62697;BME280;48761;42.680;23.312;2022-11-14T09:07:46;95834.50;;;5.54;80.11
62697;BME280;48761;42.680;23.312;2022-11-14T09:10:12;95821.66;;;5.70;79.87
62697;BME280;48761;42.680;23.312;2022-11-14T09:12:38;95740.72;;;5.20;79.25
62697;BME280;48761;42.680;23.312;2022-11-14T09:15:04;95784.19;;;5.08;80.59
62697;BME280;48761;42.680;23.312;2022-11-14T09:17:30;95820.72;;;5.71;80.08
62697;BME280;48761;42.680;23.312;2022-11-14T09:19:59;95776.00;;;5.92;78.75
62697;BME280;48761;42.680;23.312;2022-11-14T09:22:37;95807.03;;;6.35;77.24
62697;BME280;48761;42.680;23.312;2022-11-14T09:25:09;95778.38;;;6.71;76.33
62697;BME280;48761;42.680;23.312;2022-11-14T09:27:38;95770.59;;;7.11;74.48
62697;BME280;48761;42.680;23.312;2022-11-14T09:30:04;95789.88;;;7.57;73.05
62697;BME280;48761;42.680;23.312;2022-11-14T09:32:30;95784.13;;;7.68;72.22
62697;BME280;48761;42.680;23.312;2022-11-14T09:34:57;95783.63;;;7.79;71.37
62697;BME280;48761;42.680;23.312;2022-11-14T09:37:42;95722.81;;;7.37;70.58
62697;BME280;48761;42.680;23.312;2022-11-14T09:40:16;95726.59;;;7.71;70.73
62697;BME280;48761;42.680;23.312;2022-11-14T09:47:15;95787.09;;;8.40;69.05
62697;BME280;48761;42.680;23.312;2022-11-14T09:50:09;95726.56;;;8.12;68.97
62697;BME280;48761;42.680;23.312;2022-11-14T09:52:48;95780.06;;;8.39;69.04
62697;BME280;48761;42.680;23.312;2022-11-14T09:55:43;95773.19;;;8.55;68.32
62697;BME280;48761;42.680;23.312;2022-11-14T09:58:14;95753.56;;;8.78;67.76
62697;BME280;48761;42.680;23.312;2022-11-14T10:11:28;95756.28;;;9.14;66.07
62697;BME280;48761;42.680;23.312;2022-11-14T10:17:20;95727.16;;;8.94;65.86
62697;BME280;48761;42.680;23.312;2022-11-14T10:26:06;95678.38;;;8.42;66.89
62697;BME280;48761;42.680;23.312;2022-11-14T10:37:08;95719.03;;;9.15;66.43
62697;BME280;48761;42.680;23.312;2022-11-14T10:49:31;95642.72;;;9.38;63.83
62697;BME280;48761;42.680;23.312;2022-11-14T10:52:08;95698.94;;;9.97;63.80
62697;BME280;48761;42.680;23.312;2022-11-14T10:54:55;95626.84;;;9.55;63.76
62697;BME280;48761;42.680;23.312;2022-11-14T10:58:12;95620.78;;;9.69;63.16
62697;BME280;48761;42.680;23.312;2022-11-14T11:09:20;95619.28;;;9.81;62.80
62697;BME280;48761;42.680;23.312;2022-11-14T11:15:38;95669.66;;;10.31;62.39
62697;BME280;48761;42.680;23.312;2022-11-14T11:18:33;95652.69;;;10.17;62.37
62697;BME280;48761;42.680;23.312;2022-11-14T11:21:14;95643.59;;;10.22;62.25
62697;BME280;48761;42.680;23.312;2022-11-14T11:23:55;95633.31;;;10.15;62.35
62697;BME280;48761;42.680;23.312;2022-11-14T11:26:33;95640.16;;;10.19;62.38
62697;BME280;48761;42.680;23.312;2022-11-14T11:32:44;95603.75;;;9.89;62.89
62697;BME280;48761;42.680;23.312;2022-11-14T11:35:28;95660.47;;;10.37;62.58
62697;BME280;48761;42.680;23.312;2022-11-14T11:38:14;95596.13;;;9.83;62.52
62697;BME280;48761;42.680;23.312;2022-11-14T11:40:51;95642.13;;;10.00;63.07
62697;BME280;48761;42.680;23.312;2022-11-14T11:48:37;95632.28;;;10.02;63.37
62697;BME280;48761;42.680;23.312;2022-11-14T11:51:05;95642.41;;;10.11;63.40
62697;BME280;48761;42.680;23.312;2022-11-14T11:53:55;95574.72;;;9.70;63.46
62697;BME280;48761;42.680;23.312;2022-11-14T11:56:30;95595.94;;;9.86;63.89
62697;BME280;48761;42.680;23.312;2022-11-14T12:01:40;95587.22;;;9.84;64.04
62697;BME280;48761;42.680;23.312;2022-11-14T12:04:24;95571.63;;;9.78;64.22
62697;BME280;48761;42.680;23.312;2022-11-14T12:10:10;95565.81;;;9.87;63.78
62697;BME280;48761;42.680;23.312;2022-11-14T12:15:27;95622.88;;;10.28;63.80
62697;BME280;48761;42.680;23.312;2022-11-14T12:20:38;95622.19;;;9.92;65.11
62697;BME280;48761;42.680;23.312;2022-11-14T12:23:50;95556.63;;;9.60;64.86
62697;BME280;48761;42.680;23.312;2022-11-14T12:26:43;95618.50;;;10.11;64.54
62697;BME280;48761;42.680;23.312;2022-11-14T12:32:13;95604.69;;;10.20;64.26
62697;BME280;48761;42.680;23.312;2022-11-14T12:34:39;95603.66;;;10.07;64.91
62697;BME280;48761;42.680;23.312;2022-11-14T12:37:15;95595.34;;;10.13;64.65
62697;BME280;48761;42.680;23.312;2022-11-14T12:50:41;95552.75;;;9.98;64.49
62697;BME280;48761;42.680;23.312;2022-11-14T12:56:02;95562.34;;;10.01;64.71
62697;BME280;48761;42.680;23.312;2022-11-14T13:09:17;95562.78;;;10.26;64.41
62697;BME280;48761;42.680;23.312;2022-11-14T13:11:48;95571.72;;;10.39;64.60
62697;BME280;48761;42.680;23.312;2022-11-14T13:14:17;95564.91;;;10.35;64.38
62697;BME280;48761;42.680;23.312;2022-11-14T13:16:44;95560.75;;;10.46;64.19
62697;BME280;48761;42.680;23.312;2022-11-14T13:21:35;95570.69;;;10.42;64.31
62697;BME280;48761;42.680;23.312;2022-11-14T13:24:03;95550.53;;;10.23;64.59
62697;BME280;48761;42.680;23.312;2022-11-14T13:28:55;95559.91;;;10.29;64.69
62697;BME280;48761;42.680;23.312;2022-11-14T13:31:23;95520.88;;;10.15;64.29
62697;BME280;48761;42.680;23.312;2022-11-14T13:33:57;95528.75;;;10.16;64.79
62697;BME280;48761;42.680;23.312;2022-11-14T13:36:26;95552.63;;;10.32;64.65
62697;BME280;48761;42.680;23.312;2022-11-14T13:39:26;95554.25;;;10.35;64.66
62697;BME280;48761;42.680;23.312;2022-11-14T13:46:07;95555.56;;;10.28;64.86
62697;BME280;48761;42.680;23.312;2022-11-14T13:51:39;95535.84;;;10.32;64.71
62697;BME280;48761;42.680;23.312;2022-11-14T13:54:13;95490.03;;;10.12;64.33
62697;BME280;48761;42.680;23.312;2022-11-14T14:02:34;95538.03;;;10.40;64.53
62697;BME280;48761;42.680;23.312;2022-11-14T14:32:20;95536.16;;;10.11;65.86
62697;BME280;48761;42.680;23.312;2022-11-14T14:34:47;95520.22;;;9.95;66.09
62697;BME280;48761;42.680;23.312;2022-11-14T14:37:24;95511.75;;;9.88;66.33
62697;BME280;48761;42.680;23.312;2022-11-14T14:40:02;95515.13;;;9.75;66.99
62697;BME280;48761;42.680;23.312;2022-11-14T14:42:40;95465.53;;;9.60;66.60
62697;BME280;48761;42.680;23.312;2022-11-14T14:47:47;95512.78;;;9.69;67.52
62697;BME280;48761;42.680;23.312;2022-11-14T14:50:27;95464.09;;;9.38;67.45
62697;BME280;48761;42.680;23.312;2022-11-14T14:53:02;95503.47;;;9.62;67.43
62697;BME280;48761;42.680;23.312;2022-11-14T14:55:31;95468.84;;;9.31;67.82
62697;BME280;48761;42.680;23.312;2022-11-14T14:58:26;95527.78;;;9.70;67.92
62697;BME280;48761;42.680;23.312;2022-11-14T15:01:04;95477.22;;;9.23;68.25
62697;BME280;48761;42.680;23.312;2022-11-14T15:03:50;95529.84;;;9.65;68.30
62697;BME280;48761;42.680;23.312;2022-11-14T15:08:45;95514.69;;;9.67;68.22
62697;BME280;48761;42.680;23.312;2022-11-14T15:11:13;95517.31;;;9.67;68.24
62697;BME280;48761;42.680;23.312;2022-11-14T15:13:40;95521.94;;;9.63;68.28
62697;BME280;48761;42.680;23.312;2022-11-14T15:16:07;95469.03;;;9.28;68.38
62697;BME280;48761;42.680;23.312;2022-11-14T15:18:36;95457.38;;;9.14;69.15
62697;BME280;48761;42.680;23.312;2022-11-14T15:23:56;95469.88;;;9.28;69.15
62697;BME280;48761;42.680;23.312;2022-11-14T15:26:34;95523.16;;;9.58;69.07
62697;BME280;48761;42.680;23.312;2022-11-14T15:29:18;95487.38;;;9.33;69.16
62697;BME280;48761;42.680;23.312;2022-11-14T15:34:35;95519.19;;;9.49;69.51
62697;BME280;48761;42.680;23.312;2022-11-14T15:39:37;95511.41;;;9.46;69.43
62697;BME280;48761;42.680;23.312;2022-11-14T15:42:26;95531.34;;;9.53;69.35
62697;BME280;48761;42.680;23.312;2022-11-14T15:44:52;95528.34;;;9.43;69.37
62697;BME280;48761;42.680;23.312;2022-11-14T15:47:38;95532.72;;;9.44;69.25
62697;BME280;48761;42.680;23.312;2022-11-14T15:50:22;95516.81;;;9.44;69.10
62697;BME280;48761;42.680;23.312;2022-11-14T15:53:05;95528.53;;;9.40;69.58
62697;BME280;48761;42.680;23.312;2022-11-14T15:55:31;95519.81;;;9.38;69.60
62697;BME280;48761;42.680;23.312;2022-11-14T15:57:57;95518.00;;;9.38;69.74
62697;BME280;48761;42.680;23.312;2022-11-14T16:00:23;95519.56;;;9.43;69.45
62697;BME280;48761;42.680;23.312;2022-11-14T16:02:56;95518.84;;;9.39;69.27